sensor_id;sensor_type;location;lat;lon;timestamp;pressure;altitude;pressure_sealevel;temperature;humidity
64844;BME280;51310;52.198;5.422;2023-03-04T00:01:48;102460.75;;;4.45;100.00
64844;BME280;51310;52.198;5.422;2023-03-04T00:04:15;102456.13;;;4.37;100.00
64844;BME280;51310;52.198;5.422;2023-03-04T00:06:41;102454.03;;;4.40;100.00
64844;BME280;51310;52.198;5.422;2023-03-04T00:09:07;102453.56;;;4.43;100.00
64844;BME280;51310;52.198;5.422;2023-03-04T00:11:33;102449.16;;;4.42;100.00
64844;BME280;51310;52.198;5.422;2023-03-04T00:13:59;102458.44;;;4.36;100.00
64844;BME280;51310;52.198;5.422;2023-03-04T00:16:25;102453.59;;;4.31;100.00
64844;BME280;51310;52.198;5.422;2023-03-04T00:18:53;102457.53;;;4.41;100.00
64844;BME280;51310;52.198;5.422;2023-03-04T00:21:19;102451.03;;;4.31;100.00
64844;BME280;51310;52.198;5.422;2023-03-04T00:23:45;102454.25;;;4.42;100.00
64844;BME280;51310;52.198;5.422;2023-03-04T00:26:10;102452.19;;;4.39;100.00
64844;BME280;51310;52.198;5.422;2023-03-04T00:28:38;102456.81;;;4.36;100.00
64844;BME280;51310;52.198;5.422;2023-03-04T00:31:05;102459.16;;;4.35;100.00
64844;BME280;51310;52.198;5.422;2023-03-04T00:33:31;102459.38;;;4.36;100.00
64844;BME280;51310;52.198;5.422;2023-03-04T00:35:57;102466.34;;;4.37;100.00
64844;BME280;51310;52.198;5.422;2023-03-04T00:38:23;102454.97;;;4.41;100.00
64844;BME280;51310;52.198;5.422;2023-03-04T00:40:49;102447.09;;;4.39;100.00
64844;BME280;51310;52.198;5.422;2023-03-04T00:43:14;102457.06;;;4.38;100.00
64844;BME280;51310;52.198;5.422;2023-03-04T00:45:40;102452.88;;;4.38;100.00
64844;BME280;51310;52.198;5.422;2023-03-04T00:48:06;102451.03;;;4.37;100.00
64844;BME280;51310;52.198;5.422;2023-03-04T00:50:32;102449.44;;;4.32;100.00
64844;BME280;51310;52.198;5.422;2023-03-04T00:52:57;102458.50;;;4.30;100.00
64844;BME280;51310;52.198;5.422;2023-03-04T00:55:23;102449.44;;;4.32;100.00
64844;BME280;51310;52.198;5.422;2023-03-04T00:57:49;102451.50;;;4.35;100.00
64844;BME280;51310;52.198;5.422;2023-03-04T01:00:15;102447.09;;;4.39;100.00
64844;BME280;51310;52.198;5.422;2023-03-04T01:02:41;102454.06;;;4.35;100.00
64844;BME280;51310;52.198;5.422;2023-03-04T01:05:10;102461.25;;;4.31;100.00
64844;BME280;51310;52.198;5.422;2023-03-04T01:07:37;102455.41;;;4.38;100.00
64844;BME280;51310;52.198;5.422;2023-03-04T01:10:05;102456.81;;;4.36;100.00
64844;BME280;51310;52.198;5.422;2023-03-04T01:12:31;102458.22;;;4.34;100.00
64844;BME280;51310;52.198;5.422;2023-03-04T01:14:56;102458.00;;;4.32;100.00
64844;BME280;51310;52.198;5.422;2023-03-04T01:17:22;102447.56;;;4.37;100.00
64844;BME280;51310;52.198;5.422;2023-03-04T01:19:48;102458.50;;;4.30;100.00
64844;BME280;51310;52.198;5.422;2023-03-04T01:22:13;102450.63;;;4.23;100.00
64844;BME280;51310;52.198;5.422;2023-03-04T01:24:41;102446.66;;;4.25;100.00
64844;BME280;51310;52.198;5.422;2023-03-04T01:27:07;102441.38;;;4.23;100.00
64844;BME280;51310;52.198;5.422;2023-03-04T01:29:33;102439.50;;;4.28;100.00
64844;BME280;51310;52.198;5.422;2023-03-04T01:31:58;102436.94;;;4.28;100.00
64844;BME280;51310;52.198;5.422;2023-03-04T01:34:24;102441.34;;;4.29;100.00
64844;BME280;51310;52.198;5.422;2023-03-04T01:36:50;102428.59;;;4.29;100.00
64844;BME280;51310;52.198;5.422;2023-03-04T01:39:15;102430.44;;;4.30;100.00
64844;BME280;51310;52.198;5.422;2023-03-04T01:41:41;102422.81;;;4.24;100.00
64844;BME280;51310;52.198;5.422;2023-03-04T01:44:09;102435.75;;;4.37;100.00
64844;BME280;51310;52.198;5.422;2023-03-04T01:46:36;102427.63;;;4.34;100.00
64844;BME280;51310;52.198;5.422;2023-03-04T01:49:02;102428.81;;;4.30;100.00
64844;BME280;51310;52.198;5.422;2023-03-04T01:51:28;102426.03;;;4.35;100.00
64844;BME280;51310;52.198;5.422;2023-03-04T01:53:55;102429.72;;;4.37;100.00
64844;BME280;51310;52.198;5.422;2023-03-04T01:56:38;102415.84;;;4.35;100.00
64844;BME280;51310;52.198;5.422;2023-03-04T01:59:23;102415.13;;;4.36;100.00
64844;BME280;51310;52.198;5.422;2023-03-04T02:01:59;102409.13;;;4.29;100.00
64844;BME280;51310;52.198;5.422;2023-03-04T02:04:31;102408.19;;;4.29;100.00
64844;BME280;51310;52.198;5.422;2023-03-04T02:07:00;102410.31;;;4.26;100.00
64844;BME280;51310;52.198;5.422;2023-03-04T02:09:28;102408.19;;;4.29;100.00
64844;BME280;51310;52.198;5.422;2023-03-04T02:11:55;102396.19;;;4.28;100.00
64844;BME280;51310;52.198;5.422;2023-03-04T02:14:21;102394.06;;;4.25;100.00
64844;BME280;51310;52.198;5.422;2023-03-04T02:16:48;102390.59;;;4.30;100.00
64844;BME280;51310;52.198;5.422;2023-03-04T02:19:43;102394.53;;;4.28;100.00
64844;BME280;51310;52.198;5.422;2023-03-04T02:22:13;102395.94;;;4.26;100.00
64844;BME280;51310;52.198;5.422;2023-03-04T02:24:51;102392.22;;;4.30;100.00
64844;BME280;51310;52.198;5.422;2023-03-04T02:27:18;102385.50;;;4.30;100.00
64844;BME280;51310;52.198;5.422;2023-03-04T02:29:44;102383.94;;;4.20;100.00
64844;BME280;51310;52.198;5.422;2023-03-04T02:32:13;102379.50;;;4.24;100.00
64844;BME280;51310;52.198;5.422;2023-03-04T02:34:49;102384.34;;;4.28;100.00
64844;BME280;51310;52.198;5.422;2023-03-04T02:37:17;102383.94;;;4.20;100.00
64844;BME280;51310;52.198;5.422;2023-03-04T02:39:46;102376.50;;;4.21;100.00
64844;BME280;51310;52.198;5.422;2023-03-04T02:42:13;102390.41;;;4.18;100.00
64844;BME280;51310;52.198;5.422;2023-03-04T02:44:42;102377.22;;;4.15;100.00
64844;BME280;51310;52.198;5.422;2023-03-04T02:47:13;102374.22;;;4.17;100.00
64844;BME280;51310;52.198;5.422;2023-03-04T02:49:40;102376.28;;;4.20;100.00
64844;BME280;51310;52.198;5.422;2023-03-04T02:52:32;102357.53;;;4.19;100.00
64844;BME280;51310;52.198;5.422;2023-03-04T02:54:58;102364.69;;;4.16;100.00
64844;BME280;51310;52.198;5.422;2023-03-04T02:57:23;102356.63;;;4.13;100.00
64844;BME280;51310;52.198;5.422;2023-03-04T02:59:49;102354.75;;;4.18;100.00
64844;BME280;51310;52.198;5.422;2023-03-04T03:02:15;102363.34;;;4.13;100.00
64844;BME280;51310;52.198;5.422;2023-03-04T03:04:40;102361.72;;;4.13;100.00
64844;BME280;51310;52.198;5.422;2023-03-04T03:07:06;102359.59;;;4.16;100.00
64844;BME280;51310;52.198;5.422;2023-03-04T03:09:32;102352.44;;;4.19;100.00
64844;BME280;51310;52.198;5.422;2023-03-04T03:11:58;102352.44;;;4.19;100.00
64844;BME280;51310;52.198;5.422;2023-03-04T03:14:23;102345.00;;;4.21;100.00
64844;BME280;51310;52.198;5.422;2023-03-04T03:16:49;102346.63;;;4.20;100.00
64844;BME280;51310;52.198;5.422;2023-03-04T03:19:15;102343.41;;;4.16;100.00
64844;BME280;51310;52.198;5.422;2023-03-04T03:21:40;102343.88;;;4.13;100.00
64844;BME280;51310;52.198;5.422;2023-03-04T03:24:06;102341.81;;;4.10;100.00
64844;BME280;51310;52.198;5.422;2023-03-04T03:26:33;102340.41;;;4.13;100.00
64844;BME280;51310;52.198;5.422;2023-03-04T03:28:58;102328.81;;;4.15;100.00
64844;BME280;51310;52.198;5.422;2023-03-04T03:31:24;102332.25;;;4.21;100.00
64844;BME280;51310;52.198;5.422;2023-03-04T03:33:50;102325.75;;;4.23;100.00
64844;BME280;51310;52.198;5.422;2023-03-04T03:36:15;102330.66;;;4.21;100.00
64844;BME280;51310;52.198;5.422;2023-03-04T03:38:41;102336.00;;;4.17;100.00
64844;BME280;51310;52.198;5.422;2023-03-04T03:41:07;102338.56;;;4.11;100.00
64844;BME280;51310;52.198;5.422;2023-03-04T03:43:32;102346.19;;;4.11;100.00
64844;BME280;51310;52.198;5.422;2023-03-04T03:45:58;102334.84;;;4.15;100.00
64844;BME280;51310;52.198;5.422;2023-03-04T03:48:24;102337.59;;;4.17;100.00
64844;BME280;51310;52.198;5.422;2023-03-04T03:50:49;102331.81;;;4.12;100.00
64844;BME280;51310;52.198;5.422;2023-03-04T03:53:15;102334.63;;;4.08;100.00
64844;BME280;51310;52.198;5.422;2023-03-04T03:55:41;102331.81;;;4.12;100.00
64844;BME280;51310;52.198;5.422;2023-03-04T03:58:06;102333.03;;;4.08;100.00
64844;BME280;51310;52.198;5.422;2023-03-04T04:00:32;102331.41;;;4.03;100.00
64844;BME280;51310;52.198;5.422;2023-03-04T04:02:59;102336.50;;;4.03;100.00
64844;BME280;51310;52.198;5.422;2023-03-04T04:05:25;102335.41;;;3.96;100.00
64844;BME280;51310;52.198;5.422;2023-03-04T04:07:52;102327.72;;;4.01;100.00
64844;BME280;51310;52.198;5.422;2023-03-04T04:10:17;102330.25;;;4.07;100.00
64844;BME280;51310;52.198;5.422;2023-03-04T04:12:43;102333.72;;;4.07;100.00
64844;BME280;51310;52.198;5.422;2023-03-04T04:15:11;102334.44;;;4.06;100.00
64844;BME280;51310;52.198;5.422;2023-03-04T04:17:37;102341.59;;;4.09;100.00
64844;BME280;51310;52.198;5.422;2023-03-04T04:20:05;102329.53;;;4.08;100.00
64844;BME280;51310;52.198;5.422;2023-03-04T04:22:32;102338.56;;;4.11;100.00
64844;BME280;51310;52.198;5.422;2023-03-04T04:24:57;102343.91;;;4.07;100.00
64844;BME280;51310;52.198;5.422;2023-03-04T04:27:23;102345.13;;;3.98;100.00
64844;BME280;51310;52.198;5.422;2023-03-04T04:29:49;102343.47;;;3.99;100.00
64844;BME280;51310;52.198;5.422;2023-03-04T04:32:14;102344.16;;;4.03;100.00
64844;BME280;51310;52.198;5.422;2023-03-04T04:34:40;102341.13;;;4.06;100.00
64844;BME280;51310;52.198;5.422;2023-03-04T04:37:06;102339.06;;;4.03;100.00
64844;BME280;51310;52.198;5.422;2023-03-04T04:39:31;102342.09;;;4.01;100.00
64844;BME280;51310;52.198;5.422;2023-03-04T04:41:57;102342.31;;;4.02;100.00
64844;BME280;51310;52.198;5.422;2023-03-04T04:44:23;102338.56;;;4.06;100.00
64844;BME280;51310;52.198;5.422;2023-03-04T04:46:48;102340.94;;;3.99;100.00
64844;BME280;51310;52.198;5.422;2023-03-04T04:49:14;102341.84;;;4.05;100.00
64844;BME280;51310;52.198;5.422;2023-03-04T04:51:40;102339.28;;;4.10;100.00
64844;BME280;51310;52.198;5.422;2023-03-04T04:54:06;102343.88;;;4.13;100.00
64844;BME280;51310;52.198;5.422;2023-03-04T04:56:33;102349.47;;;4.05;100.00
64844;BME280;51310;52.198;5.422;2023-03-04T04:59:02;102348.50;;;4.10;100.00
64844;BME280;51310;52.198;5.422;2023-03-04T05:01:29;102344.13;;;4.09;100.00
64844;BME280;51310;52.198;5.422;2023-03-04T05:03:55;102342.31;;;4.02;100.00
64844;BME280;51310;52.198;5.422;2023-03-04T05:06:23;102341.34;;;4.13;100.00
64844;BME280;51310;52.198;5.422;2023-03-04T05:08:50;102342.97;;;4.13;100.00
64844;BME280;51310;52.198;5.422;2023-03-04T05:11:18;102343.22;;;4.03;100.00
64844;BME280;51310;52.198;5.422;2023-03-04T05:13:45;102332.53;;;4.11;100.00
64844;BME280;51310;52.198;5.422;2023-03-04T05:16:11;102341.81;;;4.10;100.00
64844;BME280;51310;52.198;5.422;2023-03-04T05:18:38;102328.38;;;4.11;100.00
64844;BME280;51310;52.198;5.422;2023-03-04T05:21:04;102344.16;;;4.03;100.00
64844;BME280;51310;52.198;5.422;2023-03-04T05:23:40;102326.78;;;4.06;100.00
64844;BME280;51310;52.198;5.422;2023-03-04T05:26:08;102337.63;;;4.11;100.00
64844;BME280;51310;52.198;5.422;2023-03-04T05:28:35;102332.53;;;4.11;100.00
64844;BME280;51310;52.198;5.422;2023-03-04T05:31:01;102337.38;;;4.15;100.00
64844;BME280;51310;52.198;5.422;2023-03-04T05:33:27;102338.31;;;4.16;100.00
64844;BME280;51310;52.198;5.422;2023-03-04T05:35:53;102335.53;;;4.14;100.00
64844;BME280;51310;52.198;5.422;2023-03-04T05:38:20;102333.03;;;4.08;100.00
64844;BME280;51310;52.198;5.422;2023-03-04T05:40:47;102341.81;;;4.10;100.00
64844;BME280;51310;52.198;5.422;2023-03-04T05:43:14;102340.44;;;4.07;100.00
64844;BME280;51310;52.198;5.422;2023-03-04T05:45:40;102338.31;;;4.10;100.00
64844;BME280;51310;52.198;5.422;2023-03-04T05:48:07;102339.53;;;4.06;100.00
64844;BME280;51310;52.198;5.422;2023-03-04T05:50:33;102338.13;;;4.03;100.00
64844;BME280;51310;52.198;5.422;2023-03-04T05:52:59;102338.13;;;4.03;100.00
64844;BME280;51310;52.198;5.422;2023-03-04T05:55:25;102341.41;;;3.96;100.00
64844;BME280;51310;52.198;5.422;2023-03-04T05:57:53;102334.25;;;3.94;100.00
64844;BME280;51310;52.198;5.422;2023-03-04T06:00:19;102339.34;;;3.88;100.00
64844;BME280;51310;52.198;5.422;2023-03-04T06:02:45;102330.81;;;3.87;100.00
64844;BME280;51310;52.198;5.422;2023-03-04T06:05:13;102337.06;;;3.84;100.00
64844;BME280;51310;52.198;5.422;2023-03-04T06:07:41;102331.28;;;3.85;100.00
64844;BME280;51310;52.198;5.422;2023-03-04T06:10:12;102331.75;;;3.82;100.00
64844;BME280;51310;52.198;5.422;2023-03-04T06:12:38;102332.69;;;3.83;100.00
64844;BME280;51310;52.198;5.422;2023-03-04T06:15:04;102332.22;;;3.80;100.00
64844;BME280;51310;52.198;5.422;2023-03-04T06:17:32;102344.69;;;3.84;100.00
64844;BME280;51310;52.198;5.422;2023-03-04T06:19:58;102335.91;;;3.82;100.00
64844;BME280;51310;52.198;5.422;2023-03-04T06:22:23;102336.84;;;3.82;100.00
64844;BME280;51310;52.198;5.422;2023-03-04T06:24:49;102335.72;;;3.80;100.00
64844;BME280;51310;52.198;5.422;2023-03-04T06:27:15;102338.44;;;3.87;100.00
64844;BME280;51310;52.198;5.422;2023-03-04T06:29:41;102329.41;;;3.84;100.00
64844;BME280;51310;52.198;5.422;2023-03-04T06:32:07;102342.13;;;3.89;100.00
64844;BME280;51310;52.198;5.422;2023-03-04T06:34:32;102344.22;;;3.86;100.00
64844;BME280;51310;52.198;5.422;2023-03-04T06:36:58;102348.44;;;3.80;100.00
64844;BME280;51310;52.198;5.422;2023-03-04T06:39:25;102347.28;;;3.78;100.00
64844;BME280;51310;52.198;5.422;2023-03-04T06:41:50;102347.72;;;3.76;100.00
64844;BME280;51310;52.198;5.422;2023-03-04T06:44:16;102347.53;;;3.74;100.00
64844;BME280;51310;52.198;5.422;2023-03-04T06:46:42;102347.53;;;3.74;100.00
64844;BME280;51310;52.198;5.422;2023-03-04T06:49:08;102354.22;;;3.74;100.00
64844;BME280;51310;52.198;5.422;2023-03-04T06:51:34;102350.28;;;3.81;100.00
64844;BME280;51310;52.198;5.422;2023-03-04T06:54:00;102358.34;;;3.84;100.00
64844;BME280;51310;52.198;5.422;2023-03-04T06:56:26;102349.78;;;3.84;100.00
64844;BME280;51310;52.198;5.422;2023-03-04T06:58:52;102352.31;;;3.89;100.00
64844;BME280;51310;52.198;5.422;2023-03-04T07:01:24;102358.56;;;3.92;100.00
64844;BME280;51310;52.198;5.422;2023-03-04T07:03:52;102359.72;;;3.88;100.00
64844;BME280;51310;52.198;5.422;2023-03-04T07:06:22;102357.47;;;3.73;100.00
64844;BME280;51310;52.198;5.422;2023-03-04T07:08:50;102366.09;;;3.51;100.00
64844;BME280;51310;52.198;5.422;2023-03-04T07:11:17;102352.22;;;3.48;100.00
64844;BME280;51310;52.198;5.422;2023-03-04T07:13:43;102358.22;;;3.55;100.00
64844;BME280;51310;52.198;5.422;2023-03-04T07:16:16;102358.91;;;3.59;100.00
64844;BME280;51310;52.198;5.422;2023-03-04T07:18:44;102356.13;;;3.63;100.00
64844;BME280;51310;52.198;5.422;2023-03-04T07:21:11;102360.06;;;3.61;100.00
64844;BME280;51310;52.198;5.422;2023-03-04T07:23:38;102368.81;;;3.69;100.00
64844;BME280;51310;52.198;5.422;2023-03-04T07:26:05;102365.97;;;3.90;100.00
64844;BME280;51310;52.198;5.422;2023-03-04T07:28:30;102362.72;;;3.97;100.00
64844;BME280;51310;52.198;5.422;2023-03-04T07:30:56;102367.78;;;4.02;100.00
64844;BME280;51310;52.198;5.422;2023-03-04T07:33:31;102371.19;;;4.14;100.00
64844;BME280;51310;52.198;5.422;2023-03-04T07:35:59;102364.28;;;4.13;100.00
64844;BME280;51310;52.198;5.422;2023-03-04T07:38:24;102359.13;;;4.19;100.00
64844;BME280;51310;52.198;5.422;2023-03-04T07:40:57;102364.44;;;4.20;100.00
64844;BME280;51310;52.198;5.422;2023-03-04T07:43:23;102365.84;;;4.18;100.00
64844;BME280;51310;52.198;5.422;2023-03-04T07:45:49;102368.88;;;4.21;100.00
64844;BME280;51310;52.198;5.422;2023-03-04T07:48:15;102369.31;;;4.24;100.00
64844;BME280;51310;52.198;5.422;2023-03-04T07:50:40;102368.56;;;4.31;100.00
64844;BME280;51310;52.198;5.422;2023-03-04T07:53:06;102368.56;;;4.31;100.00
64844;BME280;51310;52.198;5.422;2023-03-04T07:55:32;102371.13;;;4.31;100.00
64844;BME280;51310;52.198;5.422;2023-03-04T07:57:57;102371.53;;;4.40;100.00
64844;BME280;51310;52.198;5.422;2023-03-04T08:00:23;102373.56;;;4.48;100.00
64844;BME280;51310;52.198;5.422;2023-03-04T08:02:49;102372.13;;;4.56;100.00
64844;BME280;51310;52.198;5.422;2023-03-04T08:05:14;102386.97;;;4.58;100.00
64844;BME280;51310;52.198;5.422;2023-03-04T08:07:40;102378.59;;;4.59;100.00
64844;BME280;51310;52.198;5.422;2023-03-04T08:10:07;102382.59;;;4.51;100.00
64844;BME280;51310;52.198;5.422;2023-03-04T08:12:34;102384.16;;;4.62;100.00
64844;BME280;51310;52.198;5.422;2023-03-04T08:15:01;102380.50;;;4.55;100.00
64844;BME280;51310;52.198;5.422;2023-03-04T08:17:27;102393.31;;;4.43;100.00
64844;BME280;51310;52.198;5.422;2023-03-04T08:19:54;102389.63;;;4.41;100.00
64844;BME280;51310;52.198;5.422;2023-03-04T08:22:20;102386.75;;;4.51;100.00
64844;BME280;51310;52.198;5.422;2023-03-04T08:24:46;102388.56;;;4.58;100.00
64844;BME280;51310;52.198;5.422;2023-03-04T08:27:11;102384.81;;;4.67;100.00
64844;BME280;51310;52.198;5.422;2023-03-04T08:29:37;102382.00;;;4.71;100.00
64844;BME280;51310;52.198;5.422;2023-03-04T08:32:03;102391.75;;;4.68;100.00
64844;BME280;51310;52.198;5.422;2023-03-04T08:34:29;102392.38;;;4.78;100.00
64844;BME280;51310;52.198;5.422;2023-03-04T08:36:55;102391.88;;;4.86;100.00
64844;BME280;51310;52.198;5.422;2023-03-04T08:39:21;102389.75;;;4.89;100.00
64844;BME280;51310;52.198;5.422;2023-03-04T08:41:48;102394.06;;;4.66;100.00
64844;BME280;51310;52.198;5.422;2023-03-04T08:44:14;102393.25;;;4.49;100.00
64844;BME280;51310;52.198;5.422;2023-03-04T08:46:41;102393.06;;;4.47;100.00
64844;BME280;51310;52.198;5.422;2023-03-04T08:49:10;102391.16;;;4.52;100.00
64844;BME280;51310;52.198;5.422;2023-03-04T08:51:36;102389.72;;;4.60;100.00
64844;BME280;51310;52.198;5.422;2023-03-04T08:54:03;102395.31;;;4.57;100.00
64844;BME280;51310;52.198;5.422;2023-03-04T08:56:29;102391.66;;;4.49;100.00
64844;BME280;51310;52.198;5.422;2023-03-04T08:58:55;102386.50;;;4.55;100.00
64844;BME280;51310;52.198;5.422;2023-03-04T09:01:21;102384.88;;;4.56;100.00
64844;BME280;51310;52.198;5.422;2023-03-04T09:03:47;102385.97;;;4.69;100.00
64844;BME280;51310;52.198;5.422;2023-03-04T09:06:15;102385.41;;;4.83;100.00
64844;BME280;51310;52.198;5.422;2023-03-04T09:08:42;102387.59;;;4.98;100.00
64844;BME280;51310;52.198;5.422;2023-03-04T09:11:08;102393.84;;;5.00;100.00
64844;BME280;51310;52.198;5.422;2023-03-04T09:13:35;102392.19;;;5.06;100.00
64844;BME280;51310;52.198;5.422;2023-03-04T09:16:02;102384.19;;;5.16;100.00
64844;BME280;51310;52.198;5.422;2023-03-04T09:18:28;102386.59;;;5.33;100.00
64844;BME280;51310;52.198;5.422;2023-03-04T09:20:54;102386.59;;;5.33;100.00
64844;BME280;51310;52.198;5.422;2023-03-04T09:23:20;102386.78;;;5.40;100.00
64844;BME280;51310;52.198;5.422;2023-03-04T09:25:47;102382.38;;;5.39;100.00
64844;BME280;51310;52.198;5.422;2023-03-04T09:28:15;102385.84;;;5.40;100.00
64844;BME280;51310;52.198;5.422;2023-03-04T09:30:42;102384.88;;;5.45;100.00
64844;BME280;51310;52.198;5.422;2023-03-04T09:33:08;102376.72;;;5.47;100.00
64844;BME280;51310;52.198;5.422;2023-03-04T09:35:34;102383.97;;;5.63;100.00
64844;BME280;51310;52.198;5.422;2023-03-04T09:38:00;102381.78;;;5.53;100.00
64844;BME280;51310;52.198;5.422;2023-03-04T09:40:47;102388.88;;;5.61;100.00
64844;BME280;51310;52.198;5.422;2023-03-04T09:43:25;102382.66;;;5.78;100.00
64844;BME280;51310;52.198;5.422;2023-03-04T09:45:58;102378.91;;;5.81;100.00
64844;BME280;51310;52.198;5.422;2023-03-04T09:48:29;102376.38;;;5.81;100.00
64844;BME280;51310;52.198;5.422;2023-03-04T09:54:04;102373.00;;;6.12;100.00
64844;BME280;51310;52.198;5.422;2023-03-04T09:56:36;102370.84;;;6.33;100.00
64844;BME280;51310;52.198;5.422;2023-03-04T09:59:24;102362.69;;;6.18;100.00
64844;BME280;51310;52.198;5.422;2023-03-04T10:02:06;102362.00;;;6.19;100.00
64844;BME280;51310;52.198;5.422;2023-03-04T10:04:47;102365.69;;;5.78;100.00
64844;BME280;51310;52.198;5.422;2023-03-04T10:07:25;102363.69;;;5.51;100.00
64844;BME280;51310;52.198;5.422;2023-03-04T10:10:09;102363.41;;;5.55;100.00
64844;BME280;51310;52.198;5.422;2023-03-04T10:12:43;102363.81;;;5.59;100.00
64844;BME280;51310;52.198;5.422;2023-03-04T10:15:39;102361.59;;;5.73;100.00
64844;BME280;51310;52.198;5.422;2023-03-04T10:18:33;102348.13;;;5.92;100.00
64844;BME280;51310;52.198;5.422;2023-03-04T10:21:22;102348.41;;;6.07;100.00
64844;BME280;51310;52.198;5.422;2023-03-04T10:23:49;102345.09;;;6.13;100.00
64844;BME280;51310;52.198;5.422;2023-03-04T10:26:19;102342.16;;;6.42;100.00
64844;BME280;51310;52.198;5.422;2023-03-04T10:28:47;102343.28;;;6.56;100.00
64844;BME280;51310;52.198;5.422;2023-03-04T10:31:34;102349.34;;;6.57;100.00
64844;BME280;51310;52.198;5.422;2023-03-04T10:34:04;102337.84;;;6.35;100.00
64844;BME280;51310;52.198;5.422;2023-03-04T10:36:35;102346.06;;;6.27;100.00
64844;BME280;51310;52.198;5.422;2023-03-04T10:39:33;102339.03;;;6.31;100.00
64844;BME280;51310;52.198;5.422;2023-03-04T10:42:04;102342.25;;;6.49;100.00
64844;BME280;51310;52.198;5.422;2023-03-04T10:44:33;102335.97;;;6.65;100.00
64844;BME280;51310;52.198;5.422;2023-03-04T10:47:00;102342.06;;;6.91;100.00
64844;BME280;51310;52.198;5.422;2023-03-04T10:49:29;102347.28;;;6.98;100.00
64844;BME280;51310;52.198;5.422;2023-03-04T10:52:14;102351.19;;;6.89;100.00
64844;BME280;51310;52.198;5.422;2023-03-04T10:54:53;102345.53;;;6.79;100.00
64844;BME280;51310;52.198;5.422;2023-03-04T10:57:27;102352.91;;;6.52;100.00
64844;BME280;51310;52.198;5.422;2023-03-04T10:59:59;102345.34;;;6.28;100.00
64844;BME280;51310;52.198;5.422;2023-03-04T11:02:35;102348.91;;;6.04;100.00
64844;BME280;51310;52.198;5.422;2023-03-04T11:05:22;102360.31;;;5.64;100.00
64844;BME280;51310;52.198;5.422;2023-03-04T11:07:51;102359.72;;;5.53;100.00
64844;BME280;51310;52.198;5.422;2023-03-04T11:10:29;102361.78;;;5.32;100.00
64844;BME280;51310;52.198;5.422;2023-03-04T11:13:05;102365.03;;;5.31;100.00
64844;BME280;51310;52.198;5.422;2023-03-04T11:18:20;102358.47;;;5.14;100.00
64844;BME280;51310;52.198;5.422;2023-03-04T11:20:49;102358.78;;;5.05;100.00
64844;BME280;51310;52.198;5.422;2023-03-04T11:23:25;102359.03;;;5.01;100.00
64844;BME280;51310;52.198;5.422;2023-03-04T11:26:07;102361.97;;;5.09;100.00
64844;BME280;51310;52.198;5.422;2023-03-04T11:28:47;102348.75;;;5.12;100.00
64844;BME280;51310;52.198;5.422;2023-03-04T11:31:32;102348.75;;;5.12;100.00
64844;BME280;51310;52.198;5.422;2023-03-04T11:34:08;102359.16;;;5.13;100.00
64844;BME280;51310;52.198;5.422;2023-03-04T11:37:05;102336.16;;;5.19;100.00
64844;BME280;51310;52.198;5.422;2023-03-04T11:39:37;102329.56;;;5.27;100.00
64844;BME280;51310;52.198;5.422;2023-03-04T11:42:31;102325.91;;;5.43;100.00
64844;BME280;51310;52.198;5.422;2023-03-04T11:44:59;102318.50;;;5.63;100.00
64844;BME280;51310;52.198;5.422;2023-03-04T11:47:46;102326.00;;;5.99;100.00
64844;BME280;51310;52.198;5.422;2023-03-04T11:53:48;102316.19;;;6.51;100.00
64844;BME280;51310;52.198;5.422;2023-03-04T11:56:35;102309.31;;;6.45;100.00
64844;BME280;51310;52.198;5.422;2023-03-04T12:02:14;102318.41;;;6.74;100.00
64844;BME280;51310;52.198;5.422;2023-03-04T12:05:19;102312.41;;;6.55;100.00
64844;BME280;51310;52.198;5.422;2023-03-04T12:08:20;102307.50;;;6.69;100.00
64844;BME280;51310;52.198;5.422;2023-03-04T12:10:54;102300.31;;;6.54;100.00
64844;BME280;51310;52.198;5.422;2023-03-04T12:13:36;102305.31;;;6.47;100.00
64844;BME280;51310;52.198;5.422;2023-03-04T12:22:04;102292.31;;;6.45;100.00
64844;BME280;51310;52.198;5.422;2023-03-04T12:28:03;102298.59;;;6.60;100.00
64844;BME280;51310;52.198;5.422;2023-03-04T12:34:41;102303.03;;;6.74;100.00
64844;BME280;51310;52.198;5.422;2023-03-04T12:37:59;102299.22;;;6.65;100.00
64844;BME280;51310;52.198;5.422;2023-03-04T12:43:30;102272.16;;;7.11;100.00
64844;BME280;51310;52.198;5.422;2023-03-04T12:51:38;102278.09;;;6.91;100.00
64844;BME280;51310;52.198;5.422;2023-03-04T12:54:27;102283.38;;;6.80;100.00
64844;BME280;51310;52.198;5.422;2023-03-04T12:57:08;102268.13;;;6.30;100.00
64844;BME280;51310;52.198;5.422;2023-03-04T13:02:33;102278.00;;;5.90;100.00
64844;BME280;51310;52.198;5.422;2023-03-04T13:05:38;102277.19;;;5.79;100.00
64844;BME280;51310;52.198;5.422;2023-03-04T13:08:33;102271.22;;;5.91;100.00
64844;BME280;51310;52.198;5.422;2023-03-04T13:14:22;102268.84;;;5.80;100.00
64844;BME280;51310;52.198;5.422;2023-03-04T13:17:01;102268.91;;;5.74;100.00
64844;BME280;51310;52.198;5.422;2023-03-04T13:28:20;102256.63;;;5.71;100.00
64844;BME280;51310;52.198;5.422;2023-03-04T13:41:28;102255.63;;;6.13;100.00
64844;BME280;51310;52.198;5.422;2023-03-04T13:47:39;102245.59;;;6.15;100.00
64844;BME280;51310;52.198;5.422;2023-03-04T13:50:27;102242.75;;;6.19;100.00
64844;BME280;51310;52.198;5.422;2023-03-04T13:52:59;102242.00;;;6.07;100.00
64844;BME280;51310;52.198;5.422;2023-03-04T13:55:39;102239.88;;;6.10;100.00
64844;BME280;51310;52.198;5.422;2023-03-04T13:58:23;102242.41;;;6.10;100.00
64844;BME280;51310;52.198;5.422;2023-03-04T14:00:53;102247.97;;;6.26;100.00
64844;BME280;51310;52.198;5.422;2023-03-04T14:03:29;102240.53;;;6.28;100.00
64844;BME280;51310;52.198;5.422;2023-03-04T14:06:20;102239.03;;;6.04;100.00
64844;BME280;51310;52.198;5.422;2023-03-04T14:08:48;102241.72;;;6.11;100.00